East Hampton, CT

9:42 AM EST on February 25, 2017 (GMT -0500)
RidgeRunner | | Change Station
Active Advisory: Special Statement

Elev 548 ft 41.57 °N, 72.49 °W | Updated 19 seconds ago

Overcast
Overcast
54.0 °F
Feels Like 54.0 °F
N
7.0
Wind Variable Wind from SSE

Today
High -- | Low -- °F
--% Chance of Precip.
Yesterday
High -- | Low -- °F
Precip. -- in
Pressure 29.79 in
Visibility 0.2 miles
Clouds Overcast 100 ft
Dew Point 41 °F
Humidity 63%
Rainfall 0.00 in
Snow Depth Not available.
6:30 AM 5:36 PM
Waning Crescent, 1% visible
METAR KSNC 251435Z AUTO 15005KT M1/4SM FG OVC001 12/12 A2979 RMK AO2
Pressure 29.79 in
Visibility 0.2 miles
Clouds Overcast 100 ft
Dew Point 41 °F
Humidity 63%
Rainfall 0.00 in
Snow Depth Not available.
6:30 AM 5:36 PM
Waning Crescent, 1% visible
METAR KSNC 251435Z AUTO 15005KT M1/4SM FG OVC001 12/12 A2979 RMK AO2

Get Your Daily Forecast Email!

Thanks for signing up!

Be on the lookout for a verification email in your inbox.

You'll start receiving the daily forecast at 8 AM.

×

10-Day Weather Forecast

Almanac

Astronomy

Feb. 25, 2017 Rise Set
Actual Time
Civil Twilight
Nautical Twilight
Astronomical Twilight
Moon
Length of Visible Light
Length of Day
Tomorrow will be .
, % of the Moon is Illuminated

Today's Extremes

State Highs State Lows

Community

WunderPhotos

Upload Photos

1,962,540 photos uploaded!

WunderBlog® & News

Nearby

Air Quality

  Air Quality AQ Index Pollutant
Not available.

Snow Depth

Station Depth Elevation

Earthquake Activity

City Distance Mag. Time & Date
Minimum magnitude displayed is 2.5.

Coastal Water Temperatures

Place Temperature

Stations

Nearby Weather Stations

Station Location Temp. Windchill Dew Point Humidity Wind Precip. Elev Updated Type
                   

Watches & Warnings

Special Statement
Issued: 7:29 AM EST Feb. 25, 2017 – National Weather Service

... Patchy dense fog through mid-morning...

Patchy dense fog will continue to restrict visibilities to one
quarter of a mile or less at times this morning, especially south
of Interstate 84.

Motorists should be alert while driving into rapidly reduced
visibilities. Remember to slow down, use your low beam
headlights, and leave plenty of distance ahead of you in case a
sudden stop is needed.



729 am EST Sat Feb 25 2017

... Patchy dense fog through mid-morning...

Patchy dense fog will continue to restrict visibilities to one
quarter of a mile or less at times this morning, especially south
of Interstate 84.

Motorists should be alert while driving into rapidly reduced
visibilities. Remember to slow down, use your low beam
headlights, and leave plenty of distance ahead of you in case a
sudden stop is needed.